Time;durP1;ratioP1;P1;durP2;ratioP2;P2;SDS_P1;SDS_P2;PMS_P1;PMS_P2;Temp;Humidity;BMP_temperature;BMP_pressure;BME280_temperature;BME280_humidity;BME280_pressure;Samples;Min_cycle;Max_cycle;Signal;HPM_P1;HPM_P2
2021/08/02 00:00:48;;;;;;;3.40;3.20;;;19.80;61.70;;;;;;5054167;28;20039;-86
2021/08/02 00:03:37;;;;;;;3.25;3.13;;;19.70;61.70;;;;;;5018818;28;20044;-86
2021/08/02 00:06:03;;;;;;;2.85;2.75;;;19.70;61.80;;;;;;5038805;28;20033;-85
2021/08/02 00:08:29;;;;;;;2.97;2.78;;;19.70;61.90;;;;;;5050805;28;20033;-86
2021/08/02 00:10:59;;;;;;;2.80;2.70;;;19.60;61.90;;;;;;5038825;28;20029;-85
2021/08/02 00:13:27;;;;;;;2.92;2.83;;;19.60;62.00;;;;;;5004576;28;20048;-87
2021/08/02 00:15:55;;;;;;;2.90;2.80;;;19.60;62.00;;;;;;5053191;28;20048;-84
2021/08/02 00:18:22;;;;;;;2.80;2.70;;;19.50;62.00;;;;;;5036586;28;20045;-85
2021/08/02 00:20:48;;;;;;;2.70;2.60;;;19.50;62.20;;;;;;5051792;28;20021;-87
2021/08/02 00:23:14;;;;;;;2.78;2.67;;;19.50;62.20;;;;;;5019282;28;20037;-86
2021/08/02 00:25:41;;;;;;;2.85;2.67;;;19.40;62.20;;;;;;5054170;28;20036;-86
2021/08/02 00:28:07;;;;;;;2.70;2.60;;;19.40;62.40;;;;;;5036179;28;20028;-85
2021/08/02 00:30:34;;;;;;;2.53;2.42;;;19.40;62.40;;;;;;5036063;28;20029;-86
2021/08/02 00:33:00;;;;;;;2.58;2.47;;;19.30;62.40;;;;;;5052288;28;20048;-86
2021/08/02 00:35:26;;;;;;;4.25;3.10;;;19.30;62.50;;;;;;5054834;28;20059;-86
2021/08/02 00:38:07;;;;;;;5.50;2.60;;;19.30;62.50;;;;;;5059882;28;20043;-86
2021/08/02 00:40:45;;;;;;;2.55;2.45;;;19.20;62.60;;;;;;5039611;28;20025;-86
2021/08/02 00:43:33;;;;;;;2.53;2.42;;;19.20;62.70;;;;;;5055483;28;20037;-86
2021/08/02 00:45:59;;;;;;;2.90;2.70;;;19.20;62.70;;;;;;5057285;28;20033;-86
2021/08/02 00:48:27;;;;;;;2.60;2.50;;;19.10;62.70;;;;;;5023402;28;20389;-88
2021/08/02 00:50:54;;;;;;;2.58;2.45;;;19.10;62.70;;;;;;5054918;28;20044;-86
2021/08/02 00:53:22;;;;;;;2.45;2.35;;;19.10;62.80;;;;;;5004776;28;20033;-86
2021/08/02 00:55:54;;;;;;;2.15;2.05;;;19.00;62.90;;;;;;5057054;28;20493;-85
2021/08/02 00:58:21;;;;;;;2.33;2.22;;;19.00;62.90;;;;;;5057728;28;20409;-85
2021/08/02 01:00:48;;;;;;;2.30;2.20;;;19.00;63.00;;;;;;5039507;28;20028;-86
2021/08/02 01:03:14;;;;;;;2.30;2.20;;;18.90;63.00;;;;;;5038299;28;20031;-85
2021/08/02 01:05:41;;;;;;;2.30;2.20;;;18.90;63.00;;;;;;5053758;28;20025;-85
2021/08/02 01:08:10;;;;;;;2.15;2.05;;;18.90;63.10;;;;;;5058500;28;20033;-85
2021/08/02 01:10:36;;;;;;;2.22;2.13;;;18.90;63.20;;;;;;5057794;28;20033;-85
2021/08/02 01:13:06;;;;;;;2.30;2.20;;;18.80;63.20;;;;;;5039524;28;20021;-85
2021/08/02 01:15:32;;;;;;;2.45;2.35;;;18.80;63.30;;;;;;5039513;28;20033;-85
2021/08/02 01:17:58;;;;;;;2.35;2.25;;;18.80;63.30;;;;;;5055785;28;20032;-85
2021/08/02 01:20:24;;;;;;;2.45;2.35;;;18.70;63.30;;;;;;5020477;28;20025;-85
2021/08/02 01:22:50;;;;;;;2.25;2.15;;;18.70;63.40;;;;;;5039769;28;20037;-85
2021/08/02 01:25:34;;;;;;;2.28;2.17;;;18.70;63.40;;;;;;5056143;28;20029;-85
2021/08/02 01:28:16;;;;;;;2.40;2.30;;;18.60;63.50;;;;;;5057128;28;20025;-86
2021/08/02 01:30:45;;;;;;;2.45;2.35;;;18.60;63.60;;;;;;5056522;28;20374;-85
2021/08/02 01:33:11;;;;;;;2.42;2.33;;;18.60;63.60;;;;;;5039496;28;20053;-85
2021/08/02 01:35:38;;;;;;;2.50;2.40;;;18.60;63.70;;;;;;5035396;28;20041;-85
2021/08/02 01:38:05;;;;;;;2.20;2.10;;;18.50;63.70;;;;;;5058951;28;20055;-85
2021/08/02 01:40:31;;;;;;;2.45;2.35;;;18.50;63.70;;;;;;5020943;28;20048;-85
2021/08/02 01:42:57;;;;;;;2.60;2.40;;;18.50;63.80;;;;;;5022622;28;20048;-85
2021/08/02 01:45:24;;;;;;;2.50;2.40;;;18.50;63.80;;;;;;5055708;28;20059;-84
2021/08/02 01:48:01;;;;;;;2.42;2.33;;;18.50;63.80;;;;;;5036356;28;20039;-85
2021/08/02 01:50:44;;;;;;;2.55;2.45;;;18.40;63.90;;;;;;5053347;28;20036;-85
2021/08/02 01:53:33;;;;;;;2.20;2.10;;;18.40;64.00;;;;;;5048248;28;20032;-86
2021/08/02 01:56:04;;;;;;;2.40;2.30;;;18.40;64.10;;;;;;5040336;28;20039;-85
2021/08/02 01:58:31;;;;;;;2.00;1.90;;;18.30;64.00;;;;;;5022416;28;20036;-85
2021/08/02 02:00:57;;;;;;;4.00;2.35;;;18.40;64.10;;;;;;5018266;28;20048;-85
2021/08/02 02:03:26;;;;;;;2.15;2.05;;;18.40;64.10;;;;;;5030155;28;20029;-85
2021/08/02 02:06:04;;;;;;;2.17;2.08;;;18.40;64.00;;;;;;5009668;28;20482;-85
2021/08/02 02:08:36;;;;;;;2.20;2.10;;;18.40;64.00;;;;;;5030524;28;20033;-85
2021/08/02 02:11:02;;;;;;;2.28;2.17;;;18.50;64.00;;;;;;5034316;28;20036;-87
2021/08/02 02:13:50;;;;;;;2.00;1.90;;;18.40;63.90;;;;;;5031069;28;20398;-85
2021/08/02 02:16:16;;;;;;;5.68;2.22;;;18.50;64.00;;;;;;5046348;28;20037;-85
2021/08/02 02:18:46;;;;;;;2.30;2.20;;;18.50;63.90;;;;;;5030250;28;20571;-85
2021/08/02 02:21:12;;;;;;;1.98;1.85;;;18.50;63.90;;;;;;5016521;28;20425;-85
2021/08/02 02:23:38;;;;;;;2.38;2.25;;;18.50;63.90;;;;;;5030114;28;20397;-84
2021/08/02 02:26:07;;;;;;;2.75;2.60;;;18.50;64.00;;;;;;5034028;28;20370;-85
2021/08/02 02:28:34;;;;;;;2.10;2.00;;;18.50;64.00;;;;;;5031187;28;20400;-85
2021/08/02 02:31:00;;;;;;;2.35;2.25;;;18.60;64.10;;;;;;5029403;28;20048;-87
2021/08/02 02:33:26;;;;;;;2.20;2.10;;;18.60;64.10;;;;;;5029819;28;20049;-85
2021/08/02 02:35:52;;;;;;;2.10;2.00;;;18.50;64.10;;;;;;5032342;28;20036;-86
2021/08/02 02:38:19;;;;;;;2.28;2.17;;;18.60;64.20;;;;;;5049766;28;20036;-85
2021/08/02 02:40:45;;;;;;;2.25;2.15;;;18.50;64.20;;;;;;5039595;28;20048;-86
2021/08/02 02:43:11;;;;;;;2.50;2.38;;;18.60;64.30;;;;;;5055148;28;20048;-86
2021/08/02 02:45:38;;;;;;;2.25;2.08;;;18.60;64.30;;;;;;5037462;28;20044;-86
2021/08/02 02:48:05;;;;;;;2.17;2.08;;;18.60;64.30;;;;;;5037290;28;20032;-85
2021/08/02 02:50:31;;;;;;;2.85;2.20;;;18.60;64.30;;;;;;5017519;28;20025;-85
2021/08/02 02:52:59;;;;;;;2.05;1.95;;;18.60;64.30;;;;;;5039269;28;20394;-86
2021/08/02 02:55:25;;;;;;;2.42;2.33;;;18.60;64.30;;;;;;5037229;28;20493;-85
2021/08/02 02:57:52;;;;;;;2.38;2.28;;;18.60;64.30;;;;;;5037053;28;20045;-85
2021/08/02 03:00:19;;;;;;;2.00;1.90;;;18.60;64.30;;;;;;5035781;28;20485;-84
2021/08/02 03:02:45;;;;;;;2.10;2.00;;;18.60;64.30;;;;;;5017549;28;20037;-86
2021/08/02 03:05:11;;;;;;;1.92;1.83;;;18.60;64.40;;;;;;5037655;28;20024;-85
2021/08/02 03:07:37;;;;;;;2.85;2.35;;;18.60;64.40;;;;;;5054127;28;20363;-85
2021/08/02 03:10:04;;;;;;;2.00;1.90;;;18.60;64.40;;;;;;5006870;28;20052;-85
2021/08/02 03:12:30;;;;;;;2.00;1.90;;;18.60;64.50;;;;;;5037506;28;20036;-86
2021/08/02 03:14:56;;;;;;;2.08;1.98;;;18.60;64.50;;;;;;5034100;28;20029;-85
2021/08/02 03:17:23;;;;;;;2.10;2.00;;;18.60;64.60;;;;;;5051803;28;20048;-85
2021/08/02 03:19:49;;;;;;;1.90;1.80;;;18.70;64.60;;;;;;5057048;28;20389;-85
2021/08/02 03:22:33;;;;;;;2.10;2.00;;;18.70;64.60;;;;;;5036924;28;20036;-84
2021/08/02 03:25:09;;;;;;;2.00;1.90;;;18.70;64.70;;;;;;5044360;28;20393;-84
2021/08/02 03:28:15;;;;;;;1.98;1.88;;;18.70;64.70;;;;;;5045046;28;20013;-85
2021/08/02 03:30:42;;;;;;;2.22;2.13;;;18.70;64.70;;;;;;4942401;28;20039;-84
2021/08/02 03:33:15;;;;;;;2.35;2.25;;;18.70;64.70;;;;;;4962492;28;20034;-84
2021/08/02 03:35:45;;;;;;;2.00;1.90;;;18.70;64.70;;;;;;4956574;28;20142;-85
2021/08/02 03:38:12;;;;;;;1.90;1.80;;;18.70;64.80;;;;;;4958134;28;20054;-84
2021/08/02 03:40:38;;;;;;;2.00;1.90;;;18.60;64.80;;;;;;4991237;28;20420;-84
2021/08/02 03:43:04;;;;;;;2.10;2.00;;;18.60;64.80;;;;;;4975171;28;20038;-84
2021/08/02 03:45:30;;;;;;;2.10;2.00;;;18.70;64.90;;;;;;4974362;28;20110;-85
2021/08/02 03:47:56;;;;;;;2.20;2.10;;;18.60;64.90;;;;;;4939996;28;20046;-85
2021/08/02 03:50:22;;;;;;;2.10;2.00;;;18.60;65.00;;;;;;4955886;28;20130;-84
2021/08/02 03:52:48;;;;;;;2.30;2.20;;;18.60;65.00;;;;;;4975511;28;20399;-85
2021/08/02 03:55:14;;;;;;;2.03;1.92;;;18.70;65.10;;;;;;4958958;28;20035;-84
2021/08/02 03:57:40;;;;;;;2.00;1.90;;;18.70;65.90;;;;;;4958399;28;20373;-84
2021/08/02 04:00:07;;;;;;;2.47;2.38;;;18.60;65.00;;;;;;4952196;28;20081;-85
2021/08/02 04:02:33;;;;;;;2.08;1.98;;;18.60;65.10;;;;;;4970930;28;20172;-85
2021/08/02 04:04:59;;;;;;;2.17;2.08;;;18.70;65.10;;;;;;5022444;28;20041;-84
2021/08/02 04:07:25;;;;;;;2.17;2.08;;;18.60;65.10;;;;;;5018342;28;20383;-85
2021/08/02 04:09:51;;;;;;;2.28;2.17;;;18.70;65.10;;;;;;5038722;28;20025;-85
2021/08/02 04:12:17;;;;;;;2.25;2.15;;;18.70;65.10;;;;;;5038478;28;20441;-85
2021/08/02 04:14:43;;;;;;;2.15;2.05;;;18.70;65.10;;;;;;5033869;28;20025;-87
2021/08/02 04:17:09;;;;;;;2.20;2.10;;;18.70;65.10;;;;;;5037512;28;20052;-85
2021/08/02 04:19:35;;;;;;;1.90;1.80;;;18.70;65.20;;;;;;5037173;28;20037;-84
2021/08/02 04:22:02;;;;;;;1.85;1.75;;;18.70;65.20;;;;;;5038337;28;20036;-85
2021/08/02 04:24:28;;;;;;;2.00;1.90;;;18.70;65.40;;;;;;5035068;28;20049;-85
2021/08/02 04:26:54;;;;;;;21.17;2.47;;;18.70;65.30;;;;;;5049796;28;20489;-85
2021/08/02 04:29:20;;;;;;;2.15;2.05;;;18.70;65.30;;;;;;5036397;28;20037;-85
2021/08/02 04:31:47;;;;;;;1.98;1.88;;;18.70;65.30;;;;;;5037253;28;20042;-85
2021/08/02 04:34:13;;;;;;;2.00;1.90;;;18.70;65.40;;;;;;5036442;28;20036;-85
2021/08/02 04:36:39;;;;;;;2.10;2.00;;;18.70;65.50;;;;;;5037043;28;20034;-85
2021/08/02 04:39:05;;;;;;;2.15;2.05;;;18.70;65.50;;;;;;5037411;28;20037;-84
2021/08/02 04:41:31;;;;;;;2.30;2.10;;;18.70;65.50;;;;;;5032887;28;20037;-84
2021/08/02 04:43:57;;;;;;;2.20;2.10;;;18.70;65.50;;;;;;5038688;28;20505;-85
2021/08/02 04:46:24;;;;;;;2.22;2.13;;;18.70;65.60;;;;;;5036303;28;20041;-85
2021/08/02 04:48:50;;;;;;;2.00;1.90;;;18.70;65.60;;;;;;5037737;28;20494;-85
2021/08/02 04:51:16;;;;;;;2.35;2.25;;;18.70;65.60;;;;;;5036710;28;20048;-85
2021/08/02 04:53:42;;;;;;;2.50;2.40;;;18.70;65.70;;;;;;5034137;28;20486;-84
2021/08/02 04:56:08;;;;;;;2.17;2.08;;;18.70;65.70;;;;;;5037508;28;20048;-85
2021/08/02 04:58:34;;;;;;;2.10;2.00;;;18.70;65.70;;;;;;5036652;28;20482;-85
2021/08/02 05:01:00;;;;;;;2.38;2.28;;;18.70;65.70;;;;;;5037089;28;20026;-84
2021/08/02 05:03:26;;;;;;;2.20;2.10;;;18.70;65.70;;;;;;5019774;28;20412;-84
2021/08/02 05:05:53;;;;;;;2.38;2.28;;;18.70;65.70;;;;;;5035274;28;20037;-85
2021/08/02 05:08:20;;;;;;;2.17;2.08;;;18.70;65.70;;;;;;5035149;28;20041;-84
2021/08/02 05:10:47;;;;;;;2.17;2.08;;;18.70;65.80;;;;;;5039178;28;20509;-85
2021/08/02 05:13:13;;;;;;;3.13;2.88;;;18.70;65.70;;;;;;5034576;28;20042;-84
2021/08/02 05:15:39;;;;;;;2.22;2.13;;;18.70;65.70;;;;;;5033630;28;20041;-84
2021/08/02 05:18:06;;;;;;;2.40;2.30;;;18.80;65.80;;;;;;5036454;28;20028;-84
2021/08/02 05:20:32;;;;;;;2.25;2.15;;;18.80;65.80;;;;;;5030753;28;20049;-84
2021/08/02 05:22:58;;;;;;;2.20;2.10;;;18.70;65.80;;;;;;5054239;28;20032;-85
2021/08/02 05:25:24;;;;;;;2.17;2.08;;;18.80;65.90;;;;;;5038420;28;20486;-84
2021/08/02 05:27:51;;;;;;;2.17;2.08;;;18.70;65.80;;;;;;5035950;28;20030;-84
2021/08/02 05:30:18;;;;;;;2.10;2.00;;;18.70;66.00;;;;;;5036707;28;20044;-84
2021/08/02 05:32:44;;;;;;;2.00;1.90;;;18.80;65.90;;;;;;5044888;28;20037;-85
2021/08/02 05:35:11;;;;;;;2.22;2.13;;;18.80;65.90;;;;;;5039776;28;20024;-85
2021/08/02 05:37:37;;;;;;;2.00;1.90;;;18.80;65.90;;;;;;5055566;28;20478;-84
2021/08/02 05:40:04;;;;;;;2.42;2.30;;;18.80;65.90;;;;;;5056803;28;20045;-85
2021/08/02 05:42:30;;;;;;;2.38;2.28;;;18.80;66.00;;;;;;5021179;28;20457;-85
2021/08/02 05:44:56;;;;;;;2.30;2.20;;;18.80;65.90;;;;;;5051635;28;20036;-85
2021/08/02 05:47:22;;;;;;;2.10;2.00;;;18.80;66.00;;;;;;5053367;28;20029;-85
2021/08/02 05:49:49;;;;;;;2.20;2.10;;;18.80;66.00;;;;;;5058816;28;20462;-85
2021/08/02 05:52:15;;;;;;;2.00;1.90;;;18.80;66.00;;;;;;5055217;28;20025;-86
2021/08/02 05:54:41;;;;;;;2.25;2.15;;;18.80;66.00;;;;;;5056600;28;20397;-85
2021/08/02 05:57:07;;;;;;;2.10;2.00;;;18.80;66.00;;;;;;5056238;28;20021;-85
2021/08/02 05:59:34;;;;;;;2.20;2.10;;;18.90;66.10;;;;;;5034749;28;20135;-85
2021/08/02 06:02:01;;;;;;;2.30;2.20;;;18.90;66.10;;;;;;5057579;28;20040;-86
2021/08/02 06:04:27;;;;;;;2.20;2.10;;;18.90;66.10;;;;;;5038761;28;20036;-85
2021/08/02 06:06:53;;;;;;;2.83;2.25;;;19.00;66.10;;;;;;5056472;28;20386;-84
2021/08/02 06:09:21;;;;;;;2.47;2.28;;;19.00;66.10;;;;;;5038254;28;20417;-85
2021/08/02 06:11:47;;;;;;;2.33;2.22;;;19.00;66.10;;;;;;5053272;28;20032;-85
2021/08/02 06:14:14;;;;;;;2.20;2.10;;;19.00;66.00;;;;;;5038033;28;20036;-85
2021/08/02 06:16:40;;;;;;;2.30;2.20;;;19.00;66.10;;;;;;5054358;28;20039;-85
2021/08/02 06:19:06;;;;;;;2.10;2.00;;;19.00;66.10;;;;;;5038330;28;20033;-85
2021/08/02 06:21:32;;;;;;;2.22;2.13;;;19.00;66.90;;;;;;5056160;28;20025;-85
2021/08/02 06:23:58;;;;;;;2.20;2.10;;;19.10;66.10;;;;;;5020300;28;20048;-85
2021/08/02 06:26:25;;;;;;;2.17;2.08;;;19.10;66.10;;;;;;5052444;28;20041;-85
2021/08/02 06:28:51;;;;;;;2.50;2.40;;;19.20;66.20;;;;;;5040202;28;20477;-84
2021/08/02 06:31:18;;;;;;;2.28;2.17;;;19.20;66.10;;;;;;5036108;28;20033;-86
2021/08/02 06:33:44;;;;;;;2.30;2.20;;;19.20;66.00;;;;;;5034508;28;20042;-86
2021/08/02 06:36:10;;;;;;;2.10;2.00;;;19.20;66.00;;;;;;5034805;28;20020;-85
2021/08/02 06:38:37;;;;;;;2.20;2.10;;;19.20;66.00;;;;;;5031515;28;20037;-85
2021/08/02 06:41:03;;;;;;;3.20;2.83;;;19.30;66.10;;;;;;5036034;28;20045;-85
2021/08/02 06:43:30;;;;;;;2.17;2.08;;;19.30;66.00;;;;;;5033868;28;20037;-85
2021/08/02 06:45:56;;;;;;;2.42;2.22;;;19.40;66.10;;;;;;5034482;28;20056;-86
2021/08/02 06:48:22;;;;;;;2.30;2.20;;;19.40;66.10;;;;;;5017823;28;20041;-84
2021/08/02 06:50:49;;;;;;;2.30;2.20;;;19.40;66.00;;;;;;5031675;28;20025;-85
2021/08/02 06:53:15;;;;;;;2.20;2.10;;;19.40;66.00;;;;;;5034725;28;20034;-85
2021/08/02 06:55:41;;;;;;;2.30;2.20;;;19.40;66.10;;;;;;5033871;28;20037;-86
2021/08/02 06:58:07;;;;;;;2.45;2.25;;;19.50;66.00;;;;;;5035328;28;20036;-84
2021/08/02 07:00:34;;;;;;;2.30;2.20;;;19.50;66.00;;;;;;5033842;28;20482;-85
2021/08/02 07:03:00;;;;;;;2.28;2.17;;;19.60;66.10;;;;;;5034044;28;20044;-85
2021/08/02 07:05:27;;;;;;;2.15;2.05;;;19.50;66.00;;;;;;5014179;28;20040;-86
2021/08/02 07:07:54;;;;;;;2.20;2.10;;;19.60;65.90;;;;;;5037306;28;20029;-85
2021/08/02 07:10:20;;;;;;;2.28;2.17;;;19.60;65.90;;;;;;5033585;28;20044;-85
2021/08/02 07:12:46;;;;;;;2.10;2.00;;;19.70;65.90;;;;;;5033847;28;20025;-85
2021/08/02 07:15:12;;;;;;;2.70;2.55;;;19.70;65.90;;;;;;5033630;28;20037;-87
2021/08/02 07:17:38;;;;;;;2.22;2.13;;;19.70;65.80;;;;;;5013569;28;20040;-85
2021/08/02 07:20:05;;;;;;;2.25;2.15;;;19.80;65.80;;;;;;5044226;28;20033;-85
2021/08/02 07:22:31;;;;;;;2.28;2.17;;;19.90;65.80;;;;;;5017692;28;20036;-85
2021/08/02 07:24:57;;;;;;;2.42;2.33;;;19.90;65.70;;;;;;5035157;28;20482;-85
2021/08/02 07:27:23;;;;;;;2.58;2.38;;;20.00;65.70;;;;;;5033435;28;20029;-86
2021/08/02 07:29:49;;;;;;;2.30;2.20;;;20.00;65.60;;;;;;5031007;28;20036;-86
2021/08/02 07:32:15;;;;;;;2.50;2.40;;;20.10;65.60;;;;;;5041326;28;20053;-85
2021/08/02 07:34:41;;;;;;;2.20;2.10;;;20.10;65.60;;;;;;5020058;28;20501;-85
2021/08/02 07:37:07;;;;;;;2.55;2.45;;;20.20;65.50;;;;;;5052743;28;20032;-86
2021/08/02 07:39:34;;;;;;;2.30;2.20;;;20.20;65.40;;;;;;5040293;28;20516;-86
2021/08/02 07:42:00;;;;;;;2.53;2.42;;;20.30;65.30;;;;;;5047666;28;20392;-85
2021/08/02 07:44:26;;;;;;;2.60;2.50;;;20.40;65.30;;;;;;5033992;28;20200;-86
2021/08/02 07:46:52;;;;;;;2.90;2.80;;;20.40;65.20;;;;;;5055577;28;20397;-85
2021/08/02 07:49:19;;;;;;;2.72;2.63;;;20.40;65.20;;;;;;5053359;28;20029;-85
2021/08/02 07:51:45;;;;;;;2.80;2.70;;;20.50;65.20;;;;;;5036967;28;20025;-85
2021/08/02 07:54:11;;;;;;;2.80;2.70;;;20.50;65.20;;;;;;5035921;28;20036;-83
2021/08/02 07:56:38;;;;;;;2.47;2.33;;;20.60;65.10;;;;;;5048236;28;20450;-86
2021/08/02 07:59:04;;;;;;;2.80;2.60;;;20.60;65.00;;;;;;5067458;28;20052;-85
2021/08/02 08:01:30;;;;;;;2.60;2.50;;;20.70;65.00;;;;;;5036862;28;20033;-85
2021/08/02 08:03:56;;;;;;;2.70;2.50;;;20.70;64.90;;;;;;5034847;28;20497;-85
2021/08/02 08:06:22;;;;;;;2.60;2.50;;;20.80;64.80;;;;;;5053997;28;20039;-85
2021/08/02 08:08:49;;;;;;;3.88;3.60;;;20.90;64.70;;;;;;5049537;28;20013;-86
2021/08/02 08:11:15;;;;;;;2.65;2.55;;;20.90;64.50;;;;;;5035816;28;20033;-85
2021/08/02 08:13:41;;;;;;;2.85;2.75;;;21.00;64.40;;;;;;5053610;28;20037;-85
2021/08/02 08:16:07;;;;;;;2.95;2.85;;;21.10;64.40;;;;;;5054105;28;20048;-85
2021/08/02 08:18:34;;;;;;;2.97;2.78;;;21.10;64.40;;;;;;5035443;28;20028;-85
2021/08/02 08:21:00;;;;;;;2.75;2.65;;;21.20;64.40;;;;;;5053068;28;20051;-85
2021/08/02 08:23:29;;;;;;;2.45;2.35;;;21.20;64.30;;;;;;5050932;28;20040;-89
2021/08/02 08:25:55;;;;;;;2.95;2.85;;;21.20;64.30;;;;;;5021888;28;20078;-85
2021/08/02 08:28:21;;;;;;;3.00;2.80;;;21.30;64.30;;;;;;5018838;28;20025;-85
2021/08/02 08:30:47;;;;;;;2.90;2.70;;;21.30;64.30;;;;;;5053359;28;20041;-86
2021/08/02 08:33:13;;;;;;;2.92;2.83;;;21.30;64.20;;;;;;5054198;28;20045;-85
2021/08/02 08:35:39;;;;;;;3.70;3.50;;;21.40;64.20;;;;;;5050057;28;20470;-85
2021/08/02 08:38:06;;;;;;;3.20;3.10;;;21.50;64.20;;;;;;5056206;28;20037;-85
2021/08/02 08:40:32;;;;;;;3.38;3.28;;;21.40;64.10;;;;;;5036025;28;20040;-85
2021/08/02 08:42:58;;;;;;;4.90;4.70;;;21.50;64.10;;;;;;5036499;28;20048;-85
2021/08/02 08:45:24;;;;;;;5.20;5.00;;;21.50;63.90;;;;;;5018657;28;20033;-85
2021/08/02 08:47:51;;;;;;;4.68;4.47;;;21.50;63.80;;;;;;5051173;28;20048;-85
2021/08/02 08:50:18;;;;;;;5.53;5.30;;;21.60;63.80;;;;;;5053158;28;20032;-85
2021/08/02 08:52:44;;;;;;;5.38;5.07;;;21.70;63.70;;;;;;5053650;28;20021;-85
2021/08/02 08:55:12;;;;;;;3.70;3.50;;;21.80;63.60;;;;;;5055639;28;20389;-86
2021/08/02 08:57:39;;;;;;;3.85;3.65;;;21.80;63.40;;;;;;5057782;28;20033;-85
2021/08/02 09:00:07;;;;;;;3.60;3.40;;;21.80;63.30;;;;;;5055948;28;20409;-85
2021/08/02 09:02:33;;;;;;;3.28;3.17;;;21.90;63.30;;;;;;5035721;28;20021;-85
2021/08/02 09:05:01;;;;;;;4.45;4.25;;;21.90;63.10;;;;;;5041781;28;20040;-84
2021/08/02 09:07:41;;;;;;;4.88;4.68;;;22.00;63.20;;;;;;5022502;28;20025;-86
2021/08/02 09:10:09;;;;;;;5.20;5.00;;;22.00;63.00;;;;;;5023458;28;20031;-86
2021/08/02 09:12:35;;;;;;;5.80;5.50;;;22.00;62.90;;;;;;5023522;28;20017;-85
2021/08/02 09:15:05;;;;;;;5.55;5.25;;;22.10;62.80;;;;;;5056143;28;20028;-87
2021/08/02 09:17:38;;;;;;;5.88;5.53;;;22.10;62.80;;;;;;5018612;28;20059;-86
2021/08/02 09:20:05;;;;;;;5.20;5.00;;;22.10;62.70;;;;;;5066169;28;20032;-86
2021/08/02 09:22:35;;;;;;;4.22;4.03;;;22.20;62.70;;;;;;5057351;28;20040;-85
2021/08/02 09:25:13;;;;;;;3.95;3.75;;;22.30;62.50;;;;;;5038728;28;20041;-86
2021/08/02 09:27:39;;;;;;;3.47;3.38;;;22.40;62.30;;;;;;5057303;28;20040;-85
2021/08/02 09:30:17;;;;;;;4.22;4.03;;;22.60;62.10;;;;;;5054667;28;20052;-85
2021/08/02 09:32:51;;;;;;;5.07;4.88;;;22.60;61.80;;;;;;5037898;28;20053;-85
2021/08/02 09:35:31;;;;;;;4.88;4.68;;;22.70;61.60;;;;;;5038361;28;20025;-85
2021/08/02 09:37:59;;;;;;;5.10;4.80;;;22.70;61.50;;;;;;5072099;28;20048;-86
2021/08/02 09:40:25;;;;;;;4.50;4.30;;;22.70;61.50;;;;;;5055780;28;20041;-85
2021/08/02 09:42:53;;;;;;;4.53;4.32;;;22.80;61.60;;;;;;5039132;28;20028;-85
2021/08/02 09:45:19;;;;;;;4.97;4.78;;;22.70;61.60;;;;;;5054212;28;20417;-86
2021/08/02 09:47:52;;;;;;;5.50;5.20;;;22.70;61.60;;;;;;5035442;28;20044;-85
2021/08/02 09:50:26;;;;;;;5.53;5.22;;;22.70;61.60;;;;;;5055696;28;20021;-87
2021/08/02 09:52:52;;;;;;;5.43;5.18;;;22.70;61.80;;;;;;5072262;28;20032;-85
2021/08/02 09:55:19;;;;;;;4.18;3.97;;;22.60;61.70;;;;;;5038757;28;20029;-84
2021/08/02 09:57:46;;;;;;;4.18;3.97;;;22.60;61.80;;;;;;5039163;28;20021;-86
2021/08/02 10:00:13;;;;;;;4.95;4.75;;;22.50;61.70;;;;;;5021176;28;20044;-86
2021/08/02 10:02:40;;;;;;;4.53;4.32;;;22.50;61.70;;;;;;5034428;28;20025;-85
2021/08/02 10:05:09;;;;;;;4.70;4.50;;;22.50;61.60;;;;;;5057417;28;20049;-85
2021/08/02 10:07:35;;;;;;;4.53;4.32;;;22.60;61.60;;;;;;5039193;28;20020;-85
2021/08/02 10:10:02;;;;;;;4.95;4.72;;;22.60;61.30;;;;;;5054796;28;20385;-85
2021/08/02 10:12:40;;;;;;;5.57;5.28;;;22.70;61.10;;;;;;5056293;28;20029;-86
2021/08/02 10:15:07;;;;;;;4.30;4.00;;;22.90;60.90;;;;;;5023568;28;20039;-84
2021/08/02 10:17:33;;;;;;;4.15;3.95;;;23.00;60.60;;;;;;5052244;28;20013;-85
2021/08/02 10:20:01;;;;;;;4.53;4.32;;;23.10;60.40;;;;;;5073474;28;20052;-84
2021/08/02 10:22:27;;;;;;;4.90;4.60;;;23.10;60.20;;;;;;5035655;28;20045;-85
2021/08/02 10:24:53;;;;;;;4.55;4.28;;;23.20;60.00;;;;;;5020845;28;20036;-85
2021/08/02 10:27:27;;;;;;;4.85;4.55;;;23.30;59.90;;;;;;5038319;28;20481;-86
2021/08/02 10:29:53;;;;;;;4.30;4.10;;;23.40;59.80;;;;;;5035056;28;20409;-84
2021/08/02 10:32:27;;;;;;;4.10;3.90;;;23.40;59.60;;;;;;5053885;28;20045;-88
2021/08/02 10:34:55;;;;;;;4.43;4.20;;;23.50;59.50;;;;;;5056490;28;20355;-86
2021/08/02 10:37:34;;;;;;;4.18;3.97;;;23.60;59.40;;;;;;5060732;28;20039;-85
2021/08/02 10:40:04;;;;;;;4.30;4.10;;;23.60;59.20;;;;;;5026053;28;20033;-85
2021/08/02 10:42:30;;;;;;;3.85;3.65;;;23.70;59.10;;;;;;5055490;28;20047;-85
2021/08/02 10:44:57;;;;;;;4.70;4.40;;;23.80;59.00;;;;;;5037105;28;20024;-85
2021/08/02 10:47:23;;;;;;;4.38;4.18;;;24.00;58.80;;;;;;5053194;28;20033;-87
2021/08/02 10:49:50;;;;;;;4.10;3.90;;;24.10;58.60;;;;;;5055667;28;20394;-86
2021/08/02 10:52:27;;;;;;;19.90;5.20;;;24.20;58.40;;;;;;5037759;28;20025;-86
2021/08/02 10:54:53;;;;;;;4.80;4.60;;;24.30;58.30;;;;;;5037114;28;20393;-86
2021/08/02 10:57:19;;;;;;;5.05;4.85;;;24.30;58.10;;;;;;5055537;28;20021;-86
2021/08/02 10:59:45;;;;;;;4.93;4.72;;;24.40;58.00;;;;;;5051923;28;20037;-85
2021/08/02 11:02:11;;;;;;;4.82;4.63;;;24.40;57.80;;;;;;5055605;28;20037;-84
2021/08/02 11:04:38;;;;;;;4.80;4.60;;;24.40;57.80;;;;;;5040327;28;20040;-87
2021/08/02 11:07:04;;;;;;;4.55;4.35;;;24.40;57.80;;;;;;5037000;28;20040;-86
2021/08/02 11:09:34;;;;;;;5.05;4.85;;;24.40;57.80;;;;;;5055628;28;20036;-86
2021/08/02 11:12:11;;;;;;;5.00;4.80;;;24.30;57.80;;;;;;5036181;28;20037;-86
2021/08/02 11:14:48;;;;;;;4.60;4.40;;;24.30;57.90;;;;;;5017040;28;20796;-86
2021/08/02 11:17:24;;;;;;;4.43;4.22;;;24.30;57.90;;;;;;5046038;28;20462;-85
2021/08/02 11:20:03;;;;;;;4.90;4.70;;;24.30;57.90;;;;;;5036771;28;20034;-85
2021/08/02 11:22:29;;;;;;;5.07;4.88;;;24.30;57.80;;;;;;5035278;28;20030;-85
2021/08/02 11:24:57;;;;;;;4.93;4.72;;;24.30;57.80;;;;;;5035495;28;20028;-82
2021/08/02 11:27:23;;;;;;;5.53;5.22;;;24.40;57.60;;;;;;5034005;28;20025;-86
2021/08/02 11:29:51;;;;;;;5.65;5.35;;;24.50;57.40;;;;;;5030490;28;20523;-85
2021/08/02 11:32:19;;;;;;;5.65;5.35;;;24.60;57.20;;;;;;5032349;28;20057;-85
2021/08/02 11:34:55;;;;;;;16.35;5.25;;;24.80;57.00;;;;;;5049188;28;20025;-87
2021/08/02 11:37:25;;;;;;;5.50;5.30;;;24.90;56.80;;;;;;5017971;28;20030;-85
2021/08/02 11:39:59;;;;;;;5.82;5.53;;;25.00;56.60;;;;;;5034689;28;20443;-88
2021/08/02 11:42:27;;;;;;;5.70;5.40;;;25.10;56.50;;;;;;5016241;28;20047;-85
2021/08/02 11:44:54;;;;;;;6.55;6.25;;;25.20;56.40;;;;;;5031444;28;20382;-86
2021/08/02 11:47:22;;;;;;;7.00;6.70;;;25.30;56.40;;;;;;5015099;28;20486;-85
2021/08/02 11:49:48;;;;;;;5.63;5.32;;;25.30;56.30;;;;;;5049671;28;20021;-87
2021/08/02 11:52:19;;;;;;;5.90;5.60;;;25.30;56.20;;;;;;5033601;28;20052;-85
2021/08/02 11:54:47;;;;;;;6.03;5.72;;;25.30;56.20;;;;;;5034985;28;20413;-85
2021/08/02 11:57:22;;;;;;;5.82;5.53;;;25.30;56.20;;;;;;5034810;28;20025;-86
2021/08/02 11:59:59;;;;;;;6.03;5.72;;;25.20;56.20;;;;;;5013974;28;20038;-86
2021/08/02 12:02:45;;;;;;;6.05;5.75;;;25.00;56.30;;;;;;5013381;28;20029;-86
2021/08/02 12:05:23;;;;;;;6.57;6.28;;;24.80;56.50;;;;;;5043304;28;20029;-87
2021/08/02 12:07:49;;;;;;;5.15;4.95;;;24.60;56.70;;;;;;5034651;28;20029;-86
2021/08/02 12:10:23;;;;;;;5.10;4.90;;;24.50;56.90;;;;;;5032873;28;20025;-86
2021/08/02 12:13:02;;;;;;;4.90;4.70;;;24.30;57.00;;;;;;5034532;28;20029;-86
2021/08/02 12:15:28;;;;;;;4.55;4.35;;;24.30;57.00;;;;;;5034124;28;20040;-85
2021/08/02 12:17:55;;;;;;;4.72;4.53;;;24.20;57.20;;;;;;5030900;28;20033;-86
2021/08/02 12:20:28;;;;;;;4.70;4.43;;;24.10;57.40;;;;;;5015633;28;20501;-85
2021/08/02 12:22:54;;;;;;;4.78;4.57;;;24.00;57.10;;;;;;5034073;28;20479;-86
2021/08/02 12:25:20;;;;;;;5.38;5.07;;;24.00;57.10;;;;;;5033382;28;20048;-85
2021/08/02 12:27:46;;;;;;;5.57;5.28;;;24.00;57.20;;;;;;5033339;28;20029;-87
2021/08/02 12:30:13;;;;;;;5.10;4.90;;;23.90;57.20;;;;;;5019773;28;20070;-87
2021/08/02 12:32:40;;;;;;;4.70;4.50;;;23.80;57.20;;;;;;5033753;28;20411;-85
2021/08/02 12:35:12;;;;;;;4.82;4.63;;;23.80;57.30;;;;;;5038172;28;20471;-86
2021/08/02 12:37:38;;;;;;;4.10;3.90;;;23.70;57.30;;;;;;5037637;28;20044;-86
2021/08/02 12:40:07;;;;;;;5.30;5.05;;;23.70;57.30;;;;;;5036846;28;20040;-86
2021/08/02 12:42:37;;;;;;;4.53;4.32;;;23.80;57.30;;;;;;5038141;28;20029;-86
2021/08/02 12:45:05;;;;;;;5.03;4.82;;;23.90;57.10;;;;;;5018146;28;20025;-86
2021/08/02 12:47:31;;;;;;;5.13;4.93;;;24.10;56.80;;;;;;5033988;28;20497;-86
2021/08/02 12:49:58;;;;;;;5.78;5.47;;;24.20;56.50;;;;;;5039922;28;20033;-87